Startpagina
METAR-TAF:

METAR-TAF

Vliegvelden :

Dubai International Airport

Dubai, Verenigde Arabische Emiraten

breedte: 25-15-10N, lengte: 055-21-52E, hoogte: 8 m

Actueel weer

Dit bericht is 41 minuten geleden gemaakt, om 05:00 UTC
Wind 9 kt uit het zuidwesten, variërend tussen het zuidzuidoosten en het westen
Temperatuur 36°C
Vochtigheid 50%
Druk 995 hPa
Zicht 10 km of meer
geen wolken onder 1500 m en geen cumulonimbus

METAR: OMDB 190500Z 22009KT 160V270 CAVOK 36/24 Q0995 NOSIG

Tijdstip: 09:41 (05:41 UTC)

Verwachting

Dit bericht is 6 uur en het 33 minuten geleden gemaakt, om 23:08 UTC
Verwachting geldig van 19 om 00 UTC tot 20 om 06 UTC
Wind 8 kt uit het zuidzuidwesten
Zicht 10 km of meer
geen wolken onder 1500 m en geen cumulonimbus
Wijzigt naar
van 19 om 06 UTC tot 19 om 08 UTC
Wind 14 kt uit het westnoordwesten
Wijzigt naar
van 19 om 18 UTC tot 19 om 20 UTC
Wind 5 kt uit het zuidzuidwesten

TAF: OMDB 182308Z 1900/2006 21008KT CAVOK BECMG 1906/1908 29014KT BECMG 1918/1920 20005KT

Waarnemingen en weersverwachtingen van meer dan 4000 vliegvelden (METAR en TAF).

De beschikbare stations zijn de gele en rode punten op de kaart.

Ga met uw muis naar het station om de naam te zien.

Klik dan om waarnemingen en weersverwachtingen te zien.

kaart wijzigen: klik op de groene knoppen met een zwart kruis om in te zoomen, op de groene knop met een streepje om uit te zoomen of op de groene pijlen voor aangrenzende kaarten.


METAR-TAF: